Time;durP1;ratioP1;P1;durP2;ratioP2;P2;SDS_P1;SDS_P2;PMS_P1;PMS_P2;Temp;Humidity;BMP_temperature;BMP_pressure;BME280_temperature;BME280_humidity;BME280_pressure;Samples;Min_cycle;Max_cycle;Signal;HPM_P1;HPM_P2
2021/05/29 00:02:26;;;;;;;4.95;3.70;;;;;;;;;;5009347;28;20061;-48
2021/05/29 00:04:53;;;;;;;5.13;3.95;;;;;;;;;;4993981;28;20043;-49
2021/05/29 00:07:20;;;;;;;5.38;3.70;;;;;;;;;;5005644;28;20042;-46
2021/05/29 00:09:47;;;;;;;6.63;4.15;;;;;;;;;;5003854;28;20053;-45
2021/05/29 00:12:14;;;;;;;5.28;3.92;;;;;;;;;;5011784;28;20411;-50
2021/05/29 00:14:41;;;;;;;6.85;4.43;;;;;;;;;;5011478;28;20057;-45
2021/05/29 00:17:08;;;;;;;6.53;4.43;;;;;;;;;;4994763;28;20050;-46
2021/05/29 00:19:36;;;;;;;7.30;4.53;;;;;;;;;;4992891;28;20424;-45
2021/05/29 00:22:03;;;;;;;6.50;4.43;;;;;;;;;;5006719;28;20492;-47
2021/05/29 00:24:30;;;;;;;6.15;4.40;;;;;;;;;;5011051;28;20578;-46
2021/05/29 00:26:56;;;;;;;5.75;3.90;;;;;;;;;;5010070;28;20053;-47
2021/05/29 00:29:23;;;;;;;4.85;4.13;;;;;;;;;;5002892;28;20041;-47
2021/05/29 00:31:50;;;;;;;6.25;4.47;;;;;;;;;;5003534;28;20090;-47
2021/05/29 00:34:17;;;;;;;6.45;4.07;;;;;;;;;;5004043;28;20041;-45
2021/05/29 00:36:44;;;;;;;5.63;3.85;;;;;;;;;;5002274;28;20393;-47
2021/05/29 00:39:11;;;;;;;5.40;4.22;;;;;;;;;;5002651;28;20046;-51
2021/05/29 00:41:38;;;;;;;6.32;4.10;;;;;;;;;;4995870;28;20054;-47
2021/05/29 00:44:05;;;;;;;4.85;4.05;;;;;;;;;;5000572;28;20065;-49
2021/05/29 00:46:34;;;;;;;5.65;4.50;;;;;;;;;;5006007;28;20050;-48
2021/05/29 00:49:01;;;;;;;5.72;4.35;;;;;;;;;;5009439;28;20050;-46
2021/05/29 00:51:28;;;;;;;5.40;3.83;;;;;;;;;;5007178;28;20065;-46
2021/05/29 00:53:55;;;;;;;5.60;4.00;;;;;;;;;;5000435;28;20054;-45
2021/05/29 00:56:23;;;;;;;6.90;3.78;;;;;;;;;;5010758;28;20050;-50
2021/05/29 00:58:49;;;;;;;7.88;4.32;;;;;;;;;;5003271;28;20047;-49
2021/05/29 01:01:16;;;;;;;6.32;4.25;;;;;;;;;;5014344;28;20080;-50
2021/05/29 01:03:43;;;;;;;6.57;4.57;;;;;;;;;;5021515;28;20081;-45
2021/05/29 01:06:10;;;;;;;5.75;3.95;;;;;;;;;;5011701;28;20156;-47
2021/05/29 01:08:37;;;;;;;6.43;4.45;;;;;;;;;;5002683;28;20065;-48
2021/05/29 01:11:06;;;;;;;6.22;4.43;;;;;;;;;;4997419;28;20180;-48
2021/05/29 01:13:35;;;;;;;6.22;4.43;;;;;;;;;;5011225;28;20054;-45
2021/05/29 01:16:17;;;;;;;5.63;4.65;;;;;;;;;;5006329;28;20137;-45
2021/05/29 01:18:45;;;;;;;9.00;4.78;;;;;;;;;;5010385;28;20054;-49
2021/05/29 01:21:12;;;;;;;6.22;4.50;;;;;;;;;;5007790;28;20112;-45
2021/05/29 01:23:42;;;;;;;5.93;4.53;;;;;;;;;;5006762;28;20586;-45
2021/05/29 01:26:10;;;;;;;5.75;4.68;;;;;;;;;;5007731;28;20057;-48
2021/05/29 01:28:36;;;;;;;6.32;4.78;;;;;;;;;;5003391;28;20066;-49
2021/05/29 01:31:07;;;;;;;5.60;4.57;;;;;;;;;;5007572;28;20053;-47
2021/05/29 01:33:35;;;;;;;5.97;4.53;;;;;;;;;;5009614;28;20500;-46
2021/05/29 01:36:04;;;;;;;5.40;4.03;;;;;;;;;;4997137;28;20050;-47
2021/05/29 01:38:32;;;;;;;6.28;4.60;;;;;;;;;;4998302;28;20470;-50
2021/05/29 01:41:01;;;;;;;6.57;4.53;;;;;;;;;;4995904;28;20089;-48
2021/05/29 01:43:28;;;;;;;6.43;5.00;;;;;;;;;;5011563;28;20469;-60
2021/05/29 01:45:55;;;;;;;6.45;4.68;;;;;;;;;;5008101;28;20037;-47
2021/05/29 01:48:22;;;;;;;5.82;4.70;;;;;;;;;;5005033;28;20053;-50
2021/05/29 01:50:52;;;;;;;6.97;4.97;;;;;;;;;;5009720;28;20061;-46
2021/05/29 01:53:22;;;;;;;7.07;5.00;;;;;;;;;;5010626;28;20092;-47
2021/05/29 01:55:50;;;;;;;7.40;4.80;;;;;;;;;;5011524;28;20491;-46
2021/05/29 01:58:17;;;;;;;5.28;4.57;;;;;;;;;;4994293;28;20101;-49
2021/05/29 02:00:44;;;;;;;6.20;4.93;;;;;;;;;;4997960;28;20046;-51
2021/05/29 02:03:11;;;;;;;7.05;4.93;;;;;;;;;;5014127;28;20053;-47
2021/05/29 02:05:38;;;;;;;5.72;4.72;;;;;;;;;;5013543;28;20416;-47
2021/05/29 02:08:07;;;;;;;5.78;4.93;;;;;;;;;;5003623;28;20043;-51
2021/05/29 02:10:34;;;;;;;6.43;5.00;;;;;;;;;;4997112;28;20093;-45
2021/05/29 02:13:03;;;;;;;5.82;4.88;;;;;;;;;;5014088;28;20057;-45
2021/05/29 02:15:31;;;;;;;7.90;5.43;;;;;;;;;;5012149;28;20061;-45
2021/05/29 02:17:59;;;;;;;6.78;4.97;;;;;;;;;;5010816;28;20049;-47
2021/05/29 02:20:46;;;;;;;6.07;5.05;;;;;;;;;;5013037;28;20507;-47
2021/05/29 02:23:18;;;;;;;7.75;6.00;;;;;;;;;;5011272;28;20054;-45
2021/05/29 02:25:46;;;;;;;6.97;5.20;;;;;;;;;;5006092;28;20050;-47
2021/05/29 02:28:12;;;;;;;8.80;5.95;;;;;;;;;;5011543;28;20125;-47
2021/05/29 02:30:39;;;;;;;5.95;5.25;;;;;;;;;;5012293;28;20162;-47
2021/05/29 02:33:06;;;;;;;6.95;5.72;;;;;;;;;;5011759;28;20466;-46
2021/05/29 02:35:34;;;;;;;6.45;5.20;;;;;;;;;;5012538;28;20112;-49
2021/05/29 02:38:01;;;;;;;8.50;5.57;;;;;;;;;;4997021;28;20369;-45
2021/05/29 02:40:28;;;;;;;7.32;5.70;;;;;;;;;;5011061;28;20507;-46
2021/05/29 02:42:55;;;;;;;6.72;5.40;;;;;;;;;;5014262;28;20565;-46
2021/05/29 02:45:23;;;;;;;7.68;5.97;;;;;;;;;;5001986;28;20544;-48
2021/05/29 02:47:49;;;;;;;6.82;5.60;;;;;;;;;;5009801;28;20053;-47
2021/05/29 02:50:16;;;;;;;6.68;5.30;;;;;;;;;;5012145;28;20084;-49
2021/05/29 02:52:43;;;;;;;6.28;5.47;;;;;;;;;;5010721;28;20637;-46
2021/05/29 02:55:15;;;;;;;7.55;5.65;;;;;;;;;;5004707;28;20054;-47
2021/05/29 02:57:42;;;;;;;7.10;5.80;;;;;;;;;;5012176;28;20515;-45
2021/05/29 03:00:10;;;;;;;8.60;5.80;;;;;;;;;;5009050;28;20058;-47
2021/05/29 03:02:37;;;;;;;6.95;5.70;;;;;;;;;;5015779;28;20045;-48
2021/05/29 03:05:05;;;;;;;10.23;6.13;;;;;;;;;;5004938;28;20046;-54
2021/05/29 03:07:32;;;;;;;8.13;5.80;;;;;;;;;;4994174;28;20050;-48
2021/05/29 03:09:59;;;;;;;8.90;5.95;;;;;;;;;;5012282;28;20129;-47
2021/05/29 03:12:26;;;;;;;6.75;5.70;;;;;;;;;;5012237;28;20041;-45
2021/05/29 03:14:53;;;;;;;7.78;5.82;;;;;;;;;;5010290;28;20123;-49
2021/05/29 03:17:20;;;;;;;8.15;5.70;;;;;;;;;;5006333;28;20046;-49
2021/05/29 03:19:47;;;;;;;10.07;5.82;;;;;;;;;;5012138;28;20053;-49
2021/05/29 03:22:14;;;;;;;7.55;5.60;;;;;;;;;;5013327;28;20057;-48
2021/05/29 03:24:41;;;;;;;7.18;5.40;;;;;;;;;;5011056;28;20069;-49
2021/05/29 03:27:07;;;;;;;6.85;5.60;;;;;;;;;;5004848;28;20051;-51
2021/05/29 03:29:34;;;;;;;8.57;6.28;;;;;;;;;;4995215;28;20101;-51
2021/05/29 03:32:02;;;;;;;10.52;5.93;;;;;;;;;;5012367;28;20061;-52
2021/05/29 03:34:29;;;;;;;8.50;5.90;;;;;;;;;;5011724;28;20103;-49
2021/05/29 03:36:55;;;;;;;7.15;5.72;;;;;;;;;;5000687;28;20058;-49
2021/05/29 03:39:23;;;;;;;6.95;5.60;;;;;;;;;;4998718;28;20050;-48
2021/05/29 03:41:49;;;;;;;7.30;6.00;;;;;;;;;;5013005;28;20054;-48
2021/05/29 03:44:16;;;;;;;8.45;5.80;;;;;;;;;;5012155;28;20501;-47
2021/05/29 03:46:43;;;;;;;8.18;6.10;;;;;;;;;;4995550;28;20086;-51
2021/05/29 03:49:10;;;;;;;7.97;5.80;;;;;;;;;;5004418;28;20549;-48
2021/05/29 03:51:36;;;;;;;7.05;5.60;;;;;;;;;;5012434;28;20050;-50
2021/05/29 03:54:03;;;;;;;8.88;5.75;;;;;;;;;;5005387;28;20527;-50
2021/05/29 03:56:30;;;;;;;7.28;5.50;;;;;;;;;;5000270;28;20547;-47
2021/05/29 03:58:57;;;;;;;8.35;5.45;;;;;;;;;;5007693;28;20093;-48
2021/05/29 04:01:24;;;;;;;8.00;5.30;;;;;;;;;;5005047;28;20042;-46
2021/05/29 04:03:51;;;;;;;8.27;4.93;;;;;;;;;;5012432;28;20417;-47
2021/05/29 04:06:18;;;;;;;6.78;5.38;;;;;;;;;;5009753;28;20041;-47
2021/05/29 04:08:45;;;;;;;5.80;5.03;;;;;;;;;;5012112;28;20519;-46
2021/05/29 04:11:11;;;;;;;6.75;5.20;;;;;;;;;;5012027;28;20053;-49
2021/05/29 04:13:38;;;;;;;6.75;5.18;;;;;;;;;;5010605;28;20439;-47
2021/05/29 04:16:05;;;;;;;6.13;5.03;;;;;;;;;;5001302;28;20066;-50
2021/05/29 04:18:32;;;;;;;6.50;5.18;;;;;;;;;;5003322;28;20050;-47
2021/05/29 04:20:59;;;;;;;6.10;4.85;;;;;;;;;;5006444;28;20561;-46
2021/05/29 04:23:26;;;;;;;5.50;4.25;;;;;;;;;;5006632;28;20046;-48
2021/05/29 04:25:52;;;;;;;6.13;4.35;;;;;;;;;;5009942;28;20069;-46
2021/05/29 04:28:19;;;;;;;5.70;4.45;;;;;;;;;;5007817;28;20500;-47
2021/05/29 04:30:46;;;;;;;6.82;4.00;;;;;;;;;;5009871;28;20100;-48
2021/05/29 04:33:13;;;;;;;6.15;4.60;;;;;;;;;;5011170;28;20463;-47
2021/05/29 04:35:40;;;;;;;5.72;4.20;;;;;;;;;;5012879;28;20104;-47
2021/05/29 04:38:07;;;;;;;5.60;4.57;;;;;;;;;;5005592;28;20057;-46
2021/05/29 04:40:34;;;;;;;4.32;3.72;;;;;;;;;;5012084;28;20053;-47
2021/05/29 04:43:01;;;;;;;6.70;4.38;;;;;;;;;;4992831;28;20568;-46
2021/05/29 04:45:28;;;;;;;6.95;4.13;;;;;;;;;;4999048;28;20053;-47
2021/05/29 04:47:55;;;;;;;5.78;4.25;;;;;;;;;;4995082;28;20069;-46
2021/05/29 04:50:23;;;;;;;6.95;3.97;;;;;;;;;;5011127;28;20054;-46
2021/05/29 04:52:50;;;;;;;4.50;3.65;;;;;;;;;;5009458;28;20056;-46
2021/05/29 04:55:17;;;;;;;5.03;4.13;;;;;;;;;;5032256;23;20049;-49
2021/05/29 04:57:44;;;;;;;6.30;4.20;;;;;;;;;;5028774;28;20506;-47
2021/05/29 05:00:13;;;;;;;6.90;3.97;;;;;;;;;;5035289;28;20065;-51
2021/05/29 05:02:40;;;;;;;4.97;4.22;;;;;;;;;;5029727;28;20103;-48
2021/05/29 05:05:08;;;;;;;5.82;4.05;;;;;;;;;;5010954;28;20046;-47
2021/05/29 05:07:35;;;;;;;6.72;4.35;;;;;;;;;;5011722;28;20049;-46
2021/05/29 05:10:03;;;;;;;5.53;4.25;;;;;;;;;;5029919;28;20060;-53
2021/05/29 05:12:30;;;;;;;7.20;4.25;;;;;;;;;;5029426;28;20061;-46
2021/05/29 05:14:57;;;;;;;4.55;3.97;;;;;;;;;;5029358;28;20057;-45
2021/05/29 05:17:26;;;;;;;6.43;4.00;;;;;;;;;;5019198;28;20053;-46
2021/05/29 05:19:53;;;;;;;6.32;4.15;;;;;;;;;;5028203;28;20057;-48
2021/05/29 05:22:20;;;;;;;6.90;4.30;;;;;;;;;;5030144;28;20045;-48
2021/05/29 05:24:46;;;;;;;7.32;4.28;;;;;;;;;;5027789;28;20091;-47
2021/05/29 05:27:13;;;;;;;5.05;3.55;;;;;;;;;;5018469;28;20046;-47
2021/05/29 05:29:40;;;;;;;4.80;3.40;;;;;;;;;;5021004;28;20057;-48
2021/05/29 05:32:08;;;;;;;6.05;3.97;;;;;;;;;;5032904;28;20053;-46
2021/05/29 05:34:35;;;;;;;5.88;3.97;;;;;;;;;;5031987;28;20080;-51
2021/05/29 05:37:02;;;;;;;6.65;4.30;;;;;;;;;;5023045;28;20094;-49
2021/05/29 05:39:29;;;;;;;6.15;3.83;;;;;;;;;;5019201;28;20080;-47
2021/05/29 05:41:56;;;;;;;5.15;3.88;;;;;;;;;;5034459;28;20128;-47
2021/05/29 05:44:23;;;;;;;7.40;3.70;;;;;;;;;;5031208;28;20045;-50
2021/05/29 05:46:50;;;;;;;5.85;3.83;;;;;;;;;;5014279;28;20073;-47
2021/05/29 05:49:17;;;;;;;7.00;3.80;;;;;;;;;;5028421;28;20069;-49
2021/05/29 05:51:44;;;;;;;6.30;3.60;;;;;;;;;;5033193;28;20056;-49
2021/05/29 05:54:10;;;;;;;5.13;3.60;;;;;;;;;;5031713;28;20069;-46
2021/05/29 05:56:37;;;;;;;6.05;3.40;;;;;;;;;;5031694;28;20391;-50
2021/05/29 05:59:04;;;;;;;4.95;3.78;;;;;;;;;;5037468;28;20045;-47
2021/05/29 06:01:31;;;;;;;7.07;3.72;;;;;;;;;;5036915;28;20391;-49
2021/05/29 06:03:58;;;;;;;5.80;3.88;;;;;;;;;;5033204;28;20046;-50
2021/05/29 06:06:25;;;;;;;6.78;3.85;;;;;;;;;;5026835;28;20526;-50
2021/05/29 06:08:52;;;;;;;6.90;3.95;;;;;;;;;;5031758;28;20042;-48
2021/05/29 06:11:19;;;;;;;4.70;3.85;;;;;;;;;;5033430;28;20084;-47
2021/05/29 06:19:18;;;;;;;4.90;3.58;;;;;;;;;;5032394;28;20060;-46
2021/05/29 06:21:50;;;;;;;4.22;3.65;;;;;;;;;;5032104;28;20057;-48
2021/05/29 06:24:22;;;;;;;6.05;4.07;;;;;;;;;;5029867;28;20080;-47
2021/05/29 06:26:49;;;;;;;6.25;3.72;;;;;;;;;;5030659;28;20073;-47
2021/05/29 06:29:16;;;;;;;6.00;3.45;;;;;;;;;;5027839;28;20057;-51
2021/05/29 06:31:44;;;;;;;4.28;3.38;;;;;;;;;;5033145;28;20087;-49
2021/05/29 06:34:10;;;;;;;6.13;3.65;;;;;;;;;;5031045;28;20057;-48
2021/05/29 06:36:37;;;;;;;5.28;3.50;;;;;;;;;;5028946;28;20057;-49
2021/05/29 06:39:04;;;;;;;6.93;3.65;;;;;;;;;;5030556;28;20049;-51
2021/05/29 06:41:31;;;;;;;4.13;3.22;;;;;;;;;;5029433;28;20107;-48
2021/05/29 06:43:58;;;;;;;5.05;3.20;;;;;;;;;;5031497;28;20111;-50
2021/05/29 06:46:25;;;;;;;5.00;3.25;;;;;;;;;;5025102;28;20080;-48
2021/05/29 06:48:53;;;;;;;3.97;3.22;;;;;;;;;;5029611;28;20060;-49
2021/05/29 06:51:32;;;;;;;6.00;3.50;;;;;;;;;;5032523;28;20156;-47
2021/05/29 06:54:04;;;;;;;3.42;2.65;;;;;;;;;;5021614;28;20506;-46
2021/05/29 06:59:16;;;;;;;3.95;3.00;;;;;;;;;;5025630;28;20433;-48
2021/05/29 07:01:43;;;;;;;5.50;3.30;;;;;;;;;;5031667;28;20107;-49
2021/05/29 07:04:11;;;;;;;5.35;3.45;;;;;;;;;;5028080;28;20532;-48
2021/05/29 07:06:37;;;;;;;4.82;3.08;;;;;;;;;;5037319;28;20099;-49
2021/05/29 07:09:04;;;;;;;7.53;3.60;;;;;;;;;;5029721;28;20056;-57
2021/05/29 07:11:36;;;;;;;4.00;2.90;;;;;;;;;;5035398;28;20049;-48
2021/05/29 07:14:05;;;;;;;4.18;2.90;;;;;;;;;;5043984;28;20533;-50
2021/05/29 07:16:50;;;;;;;4.35;2.60;;;;;;;;;;5028928;28;20053;-52
2021/05/29 07:19:18;;;;;;;4.57;2.92;;;;;;;;;;5029703;28;20151;-49
2021/05/29 07:21:45;;;;;;;4.80;2.70;;;;;;;;;;5030335;28;20103;-52
2021/05/29 07:24:12;;;;;;;4.10;2.88;;;;;;;;;;5027156;28;20509;-52
2021/05/29 07:26:40;;;;;;;4.18;2.85;;;;;;;;;;5027908;28;20124;-50
2021/05/29 07:29:06;;;;;;;4.55;3.05;;;;;;;;;;5028212;28;20052;-51
2021/05/29 07:31:33;;;;;;;3.65;2.72;;;;;;;;;;5030788;28;20387;-53
2021/05/29 07:34:00;;;;;;;4.38;2.80;;;;;;;;;;5032011;28;20068;-52
2021/05/29 07:36:27;;;;;;;5.50;3.13;;;;;;;;;;5037878;28;20053;-52
2021/05/29 07:38:54;;;;;;;3.65;2.65;;;;;;;;;;5029668;28;20046;-51
2021/05/29 07:41:21;;;;;;;4.20;2.50;;;;;;;;;;5031201;28;20114;-53
2021/05/29 07:43:48;;;;;;;3.53;2.47;;;;;;;;;;5029853;28;20049;-52
2021/05/29 07:46:17;;;;;;;4.63;2.40;;;;;;;;;;5031373;28;20057;-50
2021/05/29 07:48:44;;;;;;;3.50;2.50;;;;;;;;;;5024229;28;20529;-51
2021/05/29 07:51:11;;;;;;;3.50;2.35;;;;;;;;;;5032743;28;20045;-50
2021/05/29 07:53:40;;;;;;;5.22;2.97;;;;;;;;;;5029637;28;20061;-51
2021/05/29 07:56:08;;;;;;;3.75;2.63;;;;;;;;;;5026250;28;20084;-52
2021/05/29 07:58:35;;;;;;;3.22;2.47;;;;;;;;;;5025977;28;20128;-52
2021/05/29 08:01:02;;;;;;;6.78;3.35;;;;;;;;;;5028623;28;20084;-51
2021/05/29 08:03:30;;;;;;;4.78;2.60;;;;;;;;;;5037581;28;20052;-53
2021/05/29 08:05:57;;;;;;;5.97;2.95;;;;;;;;;;5037926;28;20076;-52
2021/05/29 08:08:24;;;;;;;5.85;2.20;;;;;;;;;;5018799;28;20153;-52
2021/05/29 08:10:53;;;;;;;3.45;2.20;;;;;;;;;;5027688;28;20038;-49
2021/05/29 08:13:20;;;;;;;4.18;2.42;;;;;;;;;;5029847;28;20057;-52
2021/05/29 08:15:48;;;;;;;3.13;2.10;;;;;;;;;;5030160;28;20107;-50
2021/05/29 08:18:16;;;;;;;4.22;2.70;;;;;;;;;;5026792;28;20046;-50
2021/05/29 08:20:45;;;;;;;5.07;2.33;;;;;;;;;;5029407;28;20103;-54
2021/05/29 08:23:11;;;;;;;5.70;2.50;;;;;;;;;;5027864;28;20099;-55
2021/05/29 08:25:38;;;;;;;4.07;2.85;;;;;;;;;;5025301;28;20045;-55
2021/05/29 08:28:06;;;;;;;4.35;2.83;;;;;;;;;;5024492;28;20045;-55
2021/05/29 08:30:33;;;;;;;6.15;3.00;;;;;;;;;;5027458;28;20046;-54
2021/05/29 08:33:00;;;;;;;3.72;2.63;;;;;;;;;;5019447;28;20072;-52
2021/05/29 08:35:27;;;;;;;5.10;2.50;;;;;;;;;;5026251;28;20072;-49
2021/05/29 08:37:54;;;;;;;4.30;2.72;;;;;;;;;;5028554;28;20057;-48
2021/05/29 08:40:21;;;;;;;4.07;2.22;;;;;;;;;;5029419;28;20274;-47
2021/05/29 08:42:48;;;;;;;4.78;2.35;;;;;;;;;;5027215;28;20461;-54
2021/05/29 08:45:17;;;;;;;4.25;2.30;;;;;;;;;;5038546;28;20052;-53
2021/05/29 08:47:48;;;;;;;4.22;2.53;;;;;;;;;;5027323;28;20049;-54
2021/05/29 08:50:15;;;;;;;3.20;2.60;;;;;;;;;;5021511;28;20503;-51
2021/05/29 08:52:48;;;;;;;3.75;2.30;;;;;;;;;;5011560;28;20058;-47
2021/05/29 08:55:15;;;;;;;3.35;2.20;;;;;;;;;;5021011;28;20054;-50
2021/05/29 08:57:43;;;;;;;3.13;2.40;;;;;;;;;;5024192;28;20509;-49
2021/05/29 09:00:11;;;;;;;3.22;2.25;;;;;;;;;;5028200;28;20113;-52
2021/05/29 09:03:07;;;;;;;3.92;2.40;;;;;;;;;;5031606;28;20580;-51
2021/05/29 09:05:40;;;;;;;6.68;2.60;;;;;;;;;;5030112;28;20132;-48
2021/05/29 09:08:07;;;;;;;;;;;;;;;;;;5030465;28;20049;-46
2021/05/29 09:10:35;;;;;;;4.60;2.72;;;;;;;;;;5031390;28;20032;-50
2021/05/29 09:13:06;;;;;;;3.70;2.30;;;;;;;;;;5031239;28;20059;-53
2021/05/29 09:15:53;;;;;;;5.13;2.38;;;;;;;;;;5031619;28;20072;-48
2021/05/29 09:18:27;;;;;;;4.95;2.47;;;;;;;;;;5027687;28;20049;-51
2021/05/29 09:21:15;;;;;;;4.40;2.17;;;;;;;;;;5030361;28;20060;-52
2021/05/29 09:23:52;;;;;;;3.25;2.10;;;;;;;;;;5030466;28;20090;-53
2021/05/29 09:26:23;;;;;;;2.35;1.80;;;;;;;;;;5026370;28;20060;-52
2021/05/29 09:28:51;;;;;;;3.40;1.90;;;;;;;;;;5020240;28;20399;-55
2021/05/29 09:31:17;;;;;;;4.90;2.67;;;;;;;;;;5031145;28;20053;-51
2021/05/29 09:33:45;;;;;;;3.72;2.15;;;;;;;;;;5029515;28;20479;-53
2021/05/29 09:36:13;;;;;;;4.10;2.20;;;;;;;;;;5027148;28;20057;-53
2021/05/29 09:38:49;;;;;;;4.75;1.90;;;;;;;;;;5019709;28;20045;-51
2021/05/29 09:41:28;;;;;;;4.03;2.40;;;;;;;;;;5030965;28;20191;-51
2021/05/29 09:43:58;;;;;;;3.47;2.35;;;;;;;;;;5030807;28;20069;-52
2021/05/29 09:46:25;;;;;;;3.97;2.40;;;;;;;;;;5025886;28;20507;-53
2021/05/29 09:49:02;;;;;;;3.75;2.40;;;;;;;;;;5030353;28;20041;-51
2021/05/29 09:51:33;;;;;;;3.50;2.20;;;;;;;;;;5030777;28;20057;-48
2021/05/29 09:54:07;;;;;;;4.80;2.42;;;;;;;;;;5025191;28;20115;-55
2021/05/29 09:56:37;;;;;;;3.50;2.30;;;;;;;;;;5023276;28;20062;-47
2021/05/29 09:59:04;;;;;;;2.70;2.05;;;;;;;;;;5029046;28;20057;-48
2021/05/29 10:01:45;;;;;;;3.13;2.25;;;;;;;;;;5031012;28;20111;-53
2021/05/29 10:04:12;;;;;;;6.07;2.35;;;;;;;;;;5030816;28;20046;-53
2021/05/29 10:06:39;;;;;;;4.80;2.40;;;;;;;;;;5030317;28;20448;-48
2021/05/29 10:09:06;;;;;;;3.33;2.15;;;;;;;;;;5012658;28;20128;-48
2021/05/29 10:11:37;;;;;;;2.78;2.20;;;;;;;;;;5010829;28;20121;-47
2021/05/29 10:14:05;;;;;;;2.05;1.70;;;;;;;;;;5011067;28;20097;-51
2021/05/29 10:16:32;;;;;;;3.38;1.70;;;;;;;;;;5015539;28;20135;-49
2021/05/29 10:19:01;;;;;;;4.25;2.40;;;;;;;;;;5010873;28;20049;-49
2021/05/29 10:21:32;;;;;;;3.45;2.40;;;;;;;;;;5012778;28;20054;-50
2021/05/29 10:24:00;;;;;;;4.50;2.17;;;;;;;;;;5014071;28;20128;-47
2021/05/29 10:26:28;;;;;;;3.00;2.08;;;;;;;;;;5031889;28;20049;-47
2021/05/29 10:28:55;;;;;;;2.80;2.10;;;;;;;;;;5025146;28;20369;-48
2021/05/29 10:31:23;;;;;;;2.70;1.85;;;;;;;;;;5014278;28;20581;-53
2021/05/29 10:33:50;;;;;;;2.60;1.90;;;;;;;;;;5014140;28;20054;-46
2021/05/29 10:36:36;;;;;;;4.35;2.20;;;;;;;;;;5030602;28;20061;-54
2021/05/29 10:39:29;;;;;;;3.95;2.05;;;;;;;;;;5027382;28;20092;-47
2021/05/29 10:42:00;;;;;;;5.93;2.20;;;;;;;;;;5032592;28;20111;-46
2021/05/29 10:44:30;;;;;;;4.50;1.85;;;;;;;;;;5031941;28;20052;-49
2021/05/29 10:47:09;;;;;;;3.75;2.20;;;;;;;;;;5018937;28;20057;-48
2021/05/29 10:49:58;;;;;;;2.70;1.70;;;;;;;;;;5013577;28;20084;-47
2021/05/29 10:52:31;;;;;;;2.88;1.85;;;;;;;;;;5012800;28;20046;-50
2021/05/29 10:55:17;;;;;;;3.00;1.90;;;;;;;;;;5035657;23;20049;-53
2021/05/29 10:58:03;;;;;;;2.58;1.90;;;;;;;;;;5013770;28;20392;-50
2021/05/29 11:00:36;;;;;;;4.93;1.80;;;;;;;;;;4994858;28;20061;-50
2021/05/29 11:03:18;;;;;;;3.25;2.05;;;;;;;;;;4997263;28;20081;-51
2021/05/29 11:05:46;;;;;;;1.98;1.77;;;;;;;;;;5013685;28;20066;-53
2021/05/29 11:08:32;;;;;;;3.30;1.92;;;;;;;;;;4996658;28;20046;-47
2021/05/29 11:10:58;;;;;;;2.35;1.75;;;;;;;;;;4994617;28;20054;-53
2021/05/29 11:14:04;;;;;;;2.85;1.80;;;;;;;;;;4999599;28;20392;-52
2021/05/29 11:16:47;;;;;;;2.42;1.73;;;;;;;;;;4933209;29;20051;-49
2021/05/29 11:19:18;;;;;;;3.73;2.00;;;;;;;;;;4952890;29;20051;-51
2021/05/29 11:22:10;;;;;;;2.35;1.70;;;;;;;;;;4978510;28;20058;-48
2021/05/29 11:24:43;;;;;;;2.53;1.50;;;;;;;;;;4998416;28;20503;-49
2021/05/29 11:27:14;;;;;;;2.20;1.60;;;;;;;;;;4992453;28;20101;-54
2021/05/29 11:29:50;;;;;;;3.97;1.80;;;;;;;;;;4994196;28;20129;-53
2021/05/29 11:32:39;;;;;;;2.22;1.70;;;;;;;;;;4993757;28;20090;-52
2021/05/29 11:35:07;;;;;;;3.00;2.10;;;;;;;;;;5011908;28;20108;-52
2021/05/29 11:37:34;;;;;;;3.85;1.80;;;;;;;;;;4998188;28;20050;-49
2021/05/29 11:40:01;;;;;;;3.45;1.70;;;;;;;;;;5008677;28;20423;-52
2021/05/29 11:42:28;;;;;;;2.47;1.88;;;;;;;;;;5013309;28;20376;-47
2021/05/29 11:45:18;;;;;;;3.80;1.63;;;;;;;;;;5010987;28;20447;-49
2021/05/29 11:47:45;;;;;;;2.70;1.80;;;;;;;;;;4992902;28;20053;-52
2021/05/29 11:50:15;;;;;;;3.28;1.65;;;;;;;;;;4993815;28;20092;-49
2021/05/29 11:52:43;;;;;;;4.22;1.77;;;;;;;;;;4993767;28;20061;-50
2021/05/29 11:55:12;;;;;;;3.10;1.77;;;;;;;;;;5010069;28;20057;-49
2021/05/29 11:58:11;;;;;;;3.63;1.38;;;;;;;;;;5012196;28;20116;-48
2021/05/29 12:00:54;;;;;;;1.65;1.30;;;;;;;;;;4970996;28;20055;-52
2021/05/29 12:03:34;;;;;;;3.35;1.98;;;;;;;;;;4996068;28;20065;-51
2021/05/29 12:06:01;;;;;;;5.35;1.50;;;;;;;;;;5012616;28;20073;-50
2021/05/29 12:08:28;;;;;;;3.38;1.35;;;;;;;;;;4994374;28;20050;-54
2021/05/29 12:10:54;;;;;;;2.97;1.25;;;;;;;;;;4993040;28;20105;-50
2021/05/29 12:13:26;;;;;;;2.10;1.35;;;;;;;;;;4996437;28;20054;-50
2021/05/29 12:16:02;;;;;;;2.95;1.50;;;;;;;;;;5010031;28;20096;-55
2021/05/29 12:18:39;;;;;;;1.67;1.20;;;;;;;;;;5011926;28;20100;-51
2021/05/29 12:21:07;;;;;;;2.33;1.50;;;;;;;;;;5012652;28;20050;-53
2021/05/29 12:23:49;;;;;;;2.03;1.25;;;;;;;;;;5009637;28;20045;-52
2021/05/29 12:26:17;;;;;;;2.23;1.30;;;;;;;;;;4992818;28;20065;-54
2021/05/29 12:28:44;;;;;;;2.50;1.42;;;;;;;;;;4992376;28;20769;-53
2021/05/29 12:31:11;;;;;;;2.22;1.20;;;;;;;;;;4992580;28;20105;-52
2021/05/29 12:33:38;;;;;;;1.42;1.10;;;;;;;;;;4980063;28;20046;-49
2021/05/29 12:36:10;;;;;;;1.75;1.20;;;;;;;;;;5012173;28;20768;-55
2021/05/29 12:38:50;;;;;;;1.90;1.20;;;;;;;;;;4999552;28;20396;-52
2021/05/29 12:41:21;;;;;;;5.72;3.15;;;;;;;;;;5011745;28;20046;-54
2021/05/29 12:44:05;;;;;;;3.15;1.55;;;;;;;;;;4990802;28;20397;-54
2021/05/29 12:46:32;;;;;;;2.25;1.23;;;;;;;;;;4991577;28;20051;-52
2021/05/29 12:49:08;;;;;;;3.33;1.40;;;;;;;;;;5007531;28;20056;-53
2021/05/29 12:51:36;;;;;;;2.88;1.55;;;;;;;;;;5001851;28;20061;-54
2021/05/29 12:54:03;;;;;;;1.80;1.42;;;;;;;;;;4991169;28;20061;-54
2021/05/29 12:56:30;;;;;;;2.25;1.70;;;;;;;;;;4991759;28;20053;-50
2021/05/29 12:59:05;;;;;;;3.03;1.50;;;;;;;;;;4995137;28;20058;-50
2021/05/29 13:09:54;;;;;;;3.38;1.70;;;;;;;;;;5001281;28;20499;-53
2021/05/29 13:12:21;;;;;;;2.17;1.50;;;;;;;;;;5012046;28;20046;-55
2021/05/29 13:14:48;;;;;;;2.35;1.55;;;;;;;;;;5011873;28;20100;-54
2021/05/29 13:17:29;;;;;;;3.25;1.48;;;;;;;;;;5006174;28;20507;-52
2021/05/29 13:20:06;;;;;;;2.20;1.52;;;;;;;;;;5001672;28;20053;-53
2021/05/29 13:22:33;;;;;;;1.75;1.40;;;;;;;;;;5012089;28;20112;-49
2021/05/29 13:25:03;;;;;;;4.75;1.42;;;;;;;;;;4995784;28;20039;-50
2021/05/29 13:27:33;;;;;;;2.25;1.40;;;;;;;;;;4991498;28;20054;-54
2021/05/29 13:30:09;;;;;;;2.70;1.60;;;;;;;;;;5000708;28;20411;-54
2021/05/29 13:32:37;;;;;;;2.28;1.60;;;;;;;;;;5011557;28;20513;-55
2021/05/29 13:35:05;;;;;;;2.92;1.50;;;;;;;;;;5011606;28;20054;-52
2021/05/29 13:37:33;;;;;;;1.50;1.25;;;;;;;;;;5009839;28;20563;-47
2021/05/29 13:40:00;;;;;;;1.77;1.27;;;;;;;;;;5002682;28;20066;-52
2021/05/29 13:42:27;;;;;;;1.10;1.00;;;;;;;;;;5010130;28;20092;-52
2021/05/29 13:44:54;;;;;;;2.10;1.40;;;;;;;;;;5010403;28;20411;-54
2021/05/29 13:47:20;;;;;;;1.90;1.52;;;;;;;;;;4998319;28;20051;-53
2021/05/29 13:49:47;;;;;;;1.92;1.40;;;;;;;;;;5010711;28;20069;-54
2021/05/29 13:52:14;;;;;;;1.77;1.30;;;;;;;;;;5010515;28;20058;-53
2021/05/29 13:54:41;;;;;;;2.78;1.40;;;;;;;;;;5012004;28;20577;-54
2021/05/29 13:57:09;;;;;;;1.73;1.20;;;;;;;;;;4997902;28;20050;-53
2021/05/29 13:59:37;;;;;;;1.42;1.10;;;;;;;;;;4998803;28;20102;-52
2021/05/29 14:02:04;;;;;;;1.83;1.27;;;;;;;;;;5006299;28;20112;-51
2021/05/29 14:04:31;;;;;;;1.30;1.10;;;;;;;;;;5014574;28;20125;-49
2021/05/29 14:06:58;;;;;;;2.03;1.10;;;;;;;;;;5002228;28;20046;-54
2021/05/29 14:09:26;;;;;;;2.38;1.00;;;;;;;;;;5010387;28;20045;-49
2021/05/29 14:11:53;;;;;;;1.63;1.05;;;;;;;;;;5015196;28;20057;-49
2021/05/29 14:14:40;;;;;;;1.98;1.00;;;;;;;;;;5013935;28;20081;-51
2021/05/29 14:17:07;;;;;;;1.42;1.00;;;;;;;;;;4995244;28;20046;-51
2021/05/29 14:19:34;;;;;;;5.35;1.40;;;;;;;;;;5011220;28;20050;-48
2021/05/29 14:22:01;;;;;;;2.30;1.50;;;;;;;;;;5014779;28;20056;-52
2021/05/29 14:24:28;;;;;;;1.65;1.10;;;;;;;;;;5008850;28;20471;-48
2021/05/29 14:26:55;;;;;;;1.90;1.20;;;;;;;;;;4994377;28;20053;-49
2021/05/29 14:29:22;;;;;;;1.83;1.10;;;;;;;;;;4996053;28;20101;-50
2021/05/29 14:31:48;;;;;;;2.17;1.20;;;;;;;;;;4994997;28;20046;-49
2021/05/29 14:34:16;;;;;;;2.25;1.00;;;;;;;;;;4994917;28;20074;-52
2021/05/29 14:36:43;;;;;;;1.88;1.15;;;;;;;;;;5009317;28;20058;-49
2021/05/29 14:39:10;;;;;;;1.48;1.05;;;;;;;;;;5006195;28;20493;-54
2021/05/29 14:41:37;;;;;;;2.90;1.20;;;;;;;;;;5014390;28;20558;-53
2021/05/29 14:44:07;;;;;;;1.92;1.23;;;;;;;;;;5014249;28;20053;-49
2021/05/29 14:46:34;;;;;;;2.92;1.20;;;;;;;;;;4996578;28;20435;-49
2021/05/29 14:49:01;;;;;;;2.75;1.23;;;;;;;;;;5004555;28;20096;-49
2021/05/29 14:51:31;;;;;;;2.75;1.15;;;;;;;;;;5013489;28;20046;-49
2021/05/29 14:54:00;;;;;;;2.45;1.27;;;;;;;;;;5000018;28;20050;-49
2021/05/29 14:56:31;;;;;;;2.50;1.27;;;;;;;;;;4993787;28;20057;-50
2021/05/29 14:59:02;;;;;;;2.88;1.20;;;;;;;;;;4994791;28;20112;-49
2021/05/29 15:01:30;;;;;;;1.60;1.10;;;;;;;;;;4994770;28;20056;-49
2021/05/29 15:03:59;;;;;;;2.72;1.25;;;;;;;;;;4994532;28;20050;-51
2021/05/29 15:06:26;;;;;;;2.40;1.13;;;;;;;;;;4994556;28;20504;-52
2021/05/29 15:08:53;;;;;;;1.30;0.98;;;;;;;;;;5003975;28;20065;-52
2021/05/29 15:11:22;;;;;;;1.95;1.05;;;;;;;;;;5012726;28;20057;-53
2021/05/29 15:13:49;;;;;;;2.35;1.30;;;;;;;;;;5013833;28;20069;-53